sensor_id;sensor_type;location;lat;lon;timestamp;P1;durP1;ratioP1;P2;durP2;ratioP2
6519;SDS011;3293;51.690;5.982;2022-09-24T00:02:39;20.87;;;16.93;;
6519;SDS011;3293;51.690;5.982;2022-09-24T00:07:39;19.20;;;16.43;;
6519;SDS011;3293;51.690;5.982;2022-09-24T00:12:38;18.93;;;15.70;;
6519;SDS011;3293;51.690;5.982;2022-09-24T00:17:39;20.50;;;16.47;;
6519;SDS011;3293;51.690;5.982;2022-09-24T00:22:38;19.07;;;15.53;;
6519;SDS011;3293;51.690;5.982;2022-09-24T00:27:38;17.33;;;15.40;;
6519;SDS011;3293;51.690;5.982;2022-09-24T00:32:39;21.73;;;16.93;;
6519;SDS011;3293;51.690;5.982;2022-09-24T00:37:38;19.77;;;15.43;;
6519;SDS011;3293;51.690;5.982;2022-09-24T00:42:38;20.43;;;16.93;;
6519;SDS011;3293;51.690;5.982;2022-09-24T00:47:39;18.67;;;15.87;;
6519;SDS011;3293;51.690;5.982;2022-09-24T00:52:44;20.97;;;16.37;;
6519;SDS011;3293;51.690;5.982;2022-09-24T00:57:52;21.07;;;16.90;;
6519;SDS011;3293;51.690;5.982;2022-09-24T01:02:57;23.40;;;16.80;;
6519;SDS011;3293;51.690;5.982;2022-09-24T01:08:00;20.30;;;16.33;;
6519;SDS011;3293;51.690;5.982;2022-09-24T01:13:02;18.93;;;15.93;;
6519;SDS011;3293;51.690;5.982;2022-09-24T01:34:39;23.23;;;18.07;;
6519;SDS011;3293;51.690;5.982;2022-09-24T01:39:59;22.43;;;17.07;;
6519;SDS011;3293;51.690;5.982;2022-09-24T01:45:02;23.23;;;18.70;;
6519;SDS011;3293;51.690;5.982;2022-09-24T01:50:03;23.13;;;18.80;;
6519;SDS011;3293;51.690;5.982;2022-09-24T01:55:04;23.53;;;18.90;;
6519;SDS011;3293;51.690;5.982;2022-09-24T02:00:08;21.10;;;17.30;;
6519;SDS011;3293;51.690;5.982;2022-09-24T02:10:20;23.53;;;18.23;;
6519;SDS011;3293;51.690;5.982;2022-09-24T02:15:21;23.57;;;18.47;;
6519;SDS011;3293;51.690;5.982;2022-09-24T02:20:30;24.13;;;19.47;;
6519;SDS011;3293;51.690;5.982;2022-09-24T02:25:36;26.10;;;19.73;;
6519;SDS011;3293;51.690;5.982;2022-09-24T02:30:41;21.83;;;17.20;;
6519;SDS011;3293;51.690;5.982;2022-09-24T02:35:44;22.97;;;18.43;;
6519;SDS011;3293;51.690;5.982;2022-09-24T02:40:46;23.90;;;19.17;;
6519;SDS011;3293;51.690;5.982;2022-09-24T02:45:47;24.57;;;20.17;;
6519;SDS011;3293;51.690;5.982;2022-09-24T02:50:46;23.37;;;18.00;;
6519;SDS011;3293;51.690;5.982;2022-09-24T02:55:46;20.60;;;17.93;;
6519;SDS011;3293;51.690;5.982;2022-09-24T03:00:47;26.80;;;19.27;;
6519;SDS011;3293;51.690;5.982;2022-09-24T03:05:46;23.83;;;19.87;;
6519;SDS011;3293;51.690;5.982;2022-09-24T03:10:47;26.13;;;18.53;;
6519;SDS011;3293;51.690;5.982;2022-09-24T03:15:49;21.43;;;17.57;;
6519;SDS011;3293;51.690;5.982;2022-09-24T03:20:56;23.07;;;18.87;;
6519;SDS011;3293;51.690;5.982;2022-09-24T03:26:00;25.93;;;20.20;;
6519;SDS011;3293;51.690;5.982;2022-09-24T03:31:00;26.03;;;19.93;;
6519;SDS011;3293;51.690;5.982;2022-09-24T03:36:10;26.53;;;21.47;;
6519;SDS011;3293;51.690;5.982;2022-09-24T03:41:12;27.93;;;20.33;;
6519;SDS011;3293;51.690;5.982;2022-09-24T03:46:13;27.97;;;22.70;;
6519;SDS011;3293;51.690;5.982;2022-09-24T03:51:16;28.07;;;22.60;;
6519;SDS011;3293;51.690;5.982;2022-09-24T03:56:18;37.93;;;25.77;;
6519;SDS011;3293;51.690;5.982;2022-09-24T04:01:18;29.70;;;24.37;;
6519;SDS011;3293;51.690;5.982;2022-09-24T04:06:19;34.53;;;26.37;;
6519;SDS011;3293;51.690;5.982;2022-09-24T04:11:20;38.53;;;28.30;;
6519;SDS011;3293;51.690;5.982;2022-09-24T04:16:20;36.97;;;27.37;;
6519;SDS011;3293;51.690;5.982;2022-09-24T04:21:20;39.60;;;29.07;;
6519;SDS011;3293;51.690;5.982;2022-09-24T04:26:20;38.47;;;28.57;;
6519;SDS011;3293;51.690;5.982;2022-09-24T04:31:20;45.13;;;30.77;;
6519;SDS011;3293;51.690;5.982;2022-09-24T04:36:20;45.57;;;30.77;;
6519;SDS011;3293;51.690;5.982;2022-09-24T04:41:20;45.50;;;31.73;;
6519;SDS011;3293;51.690;5.982;2022-09-24T04:46:20;43.70;;;31.37;;
6519;SDS011;3293;51.690;5.982;2022-09-24T04:51:20;42.17;;;31.67;;
6519;SDS011;3293;51.690;5.982;2022-09-24T04:56:20;46.43;;;32.00;;
6519;SDS011;3293;51.690;5.982;2022-09-24T05:01:20;41.30;;;31.53;;
6519;SDS011;3293;51.690;5.982;2022-09-24T05:06:20;44.23;;;31.40;;
6519;SDS011;3293;51.690;5.982;2022-09-24T05:11:20;39.90;;;29.20;;
6519;SDS011;3293;51.690;5.982;2022-09-24T05:16:20;37.03;;;28.13;;
6519;SDS011;3293;51.690;5.982;2022-09-24T05:21:20;43.73;;;31.03;;
6519;SDS011;3293;51.690;5.982;2022-09-24T05:26:20;40.07;;;29.37;;
6519;SDS011;3293;51.690;5.982;2022-09-24T05:31:39;38.07;;;28.50;;
6519;SDS011;3293;51.690;5.982;2022-09-24T05:36:39;39.07;;;30.17;;
6519;SDS011;3293;51.690;5.982;2022-09-24T05:41:41;40.77;;;29.03;;
6519;SDS011;3293;51.690;5.982;2022-09-24T05:46:42;41.47;;;27.37;;
6519;SDS011;3293;51.690;5.982;2022-09-24T05:51:42;34.13;;;25.97;;
6519;SDS011;3293;51.690;5.982;2022-09-24T05:56:43;35.73;;;27.87;;
6519;SDS011;3293;51.690;5.982;2022-09-24T06:01:44;32.47;;;25.43;;
6519;SDS011;3293;51.690;5.982;2022-09-24T06:06:43;34.63;;;26.00;;
6519;SDS011;3293;51.690;5.982;2022-09-24T06:11:43;33.50;;;25.67;;
6519;SDS011;3293;51.690;5.982;2022-09-24T06:16:44;33.23;;;24.57;;
6519;SDS011;3293;51.690;5.982;2022-09-24T06:21:44;35.70;;;25.10;;
6519;SDS011;3293;51.690;5.982;2022-09-24T06:26:44;29.33;;;22.53;;
6519;SDS011;3293;51.690;5.982;2022-09-24T06:31:44;26.40;;;21.57;;
6519;SDS011;3293;51.690;5.982;2022-09-24T06:36:45;27.50;;;22.70;;
6519;SDS011;3293;51.690;5.982;2022-09-24T06:41:45;27.70;;;21.07;;
6519;SDS011;3293;51.690;5.982;2022-09-24T06:46:45;27.20;;;22.13;;
6519;SDS011;3293;51.690;5.982;2022-09-24T06:51:45;26.60;;;21.93;;
6519;SDS011;3293;51.690;5.982;2022-09-24T06:56:45;26.07;;;22.30;;
6519;SDS011;3293;51.690;5.982;2022-09-24T07:01:45;27.53;;;21.80;;
6519;SDS011;3293;51.690;5.982;2022-09-24T07:06:45;32.43;;;23.17;;
6519;SDS011;3293;51.690;5.982;2022-09-24T07:12:04;28.63;;;23.07;;
6519;SDS011;3293;51.690;5.982;2022-09-24T07:17:07;31.00;;;21.83;;
6519;SDS011;3293;51.690;5.982;2022-09-24T07:22:07;27.20;;;20.93;;
6519;SDS011;3293;51.690;5.982;2022-09-24T07:27:07;27.60;;;22.07;;
6519;SDS011;3293;51.690;5.982;2022-09-24T07:32:07;24.77;;;20.90;;
6519;SDS011;3293;51.690;5.982;2022-09-24T07:37:07;27.07;;;22.50;;
6519;SDS011;3293;51.690;5.982;2022-09-24T07:42:07;27.10;;;22.70;;
6519;SDS011;3293;51.690;5.982;2022-09-24T07:47:07;31.00;;;24.53;;
6519;SDS011;3293;51.690;5.982;2022-09-24T07:52:07;31.70;;;23.50;;
6519;SDS011;3293;51.690;5.982;2022-09-24T07:57:09;29.73;;;23.40;;
6519;SDS011;3293;51.690;5.982;2022-09-24T08:02:13;31.07;;;24.07;;
6519;SDS011;3293;51.690;5.982;2022-09-24T08:07:15;29.00;;;24.50;;
6519;SDS011;3293;51.690;5.982;2022-09-24T08:12:15;26.17;;;22.20;;
6519;SDS011;3293;51.690;5.982;2022-09-24T08:17:15;32.20;;;25.43;;
6519;SDS011;3293;51.690;5.982;2022-09-24T08:22:15;27.47;;;22.53;;
6519;SDS011;3293;51.690;5.982;2022-09-24T08:27:15;29.00;;;24.53;;
6519;SDS011;3293;51.690;5.982;2022-09-24T08:32:15;29.60;;;23.03;;
6519;SDS011;3293;51.690;5.982;2022-09-24T08:37:16;29.53;;;23.23;;
6519;SDS011;3293;51.690;5.982;2022-09-24T08:47:41;27.50;;;22.67;;
6519;SDS011;3293;51.690;5.982;2022-09-24T08:53:02;24.83;;;21.77;;
6519;SDS011;3293;51.690;5.982;2022-09-24T08:58:34;27.93;;;21.67;;
6519;SDS011;3293;51.690;5.982;2022-09-24T09:03:46;27.20;;;22.73;;
6519;SDS011;3293;51.690;5.982;2022-09-24T09:09:02;26.27;;;22.13;;
6519;SDS011;3293;51.690;5.982;2022-09-24T09:14:09;24.47;;;21.80;;
6519;SDS011;3293;51.690;5.982;2022-09-24T09:19:21;28.13;;;22.80;;
6519;SDS011;3293;51.690;5.982;2022-09-24T09:24:26;27.40;;;21.60;;
6519;SDS011;3293;51.690;5.982;2022-09-24T09:29:51;27.17;;;21.70;;
6519;SDS011;3293;51.690;5.982;2022-09-24T09:35:01;21.57;;;19.27;;
6519;SDS011;3293;51.690;5.982;2022-09-24T09:51:00;22.00;;;18.43;;
6519;SDS011;3293;51.690;5.982;2022-09-24T09:56:04;20.87;;;18.63;;
6519;SDS011;3293;51.690;5.982;2022-09-24T10:01:10;23.00;;;18.70;;
6519;SDS011;3293;51.690;5.982;2022-09-24T10:06:27;19.07;;;16.50;;
6519;SDS011;3293;51.690;5.982;2022-09-24T10:11:29;19.80;;;16.97;;
6519;SDS011;3293;51.690;5.982;2022-09-24T10:16:29;23.53;;;17.13;;
6519;SDS011;3293;51.690;5.982;2022-09-24T10:21:37;18.63;;;16.33;;
6519;SDS011;3293;51.690;5.982;2022-09-24T10:26:39;18.30;;;16.33;;
6519;SDS011;3293;51.690;5.982;2022-09-24T10:31:41;19.17;;;15.60;;
6519;SDS011;3293;51.690;5.982;2022-09-24T10:36:48;16.70;;;15.00;;
6519;SDS011;3293;51.690;5.982;2022-09-24T10:42:02;18.23;;;15.90;;
6519;SDS011;3293;51.690;5.982;2022-09-24T11:13:34;17.33;;;14.43;;
6519;SDS011;3293;51.690;5.982;2022-09-24T11:23:51;19.17;;;15.47;;
6519;SDS011;3293;51.690;5.982;2022-09-24T11:29:29;24.03;;;19.27;;
6519;SDS011;3293;51.690;5.982;2022-09-24T11:34:50;26.47;;;17.70;;
6519;SDS011;3293;51.690;5.982;2022-09-24T11:40:31;21.07;;;16.70;;
6519;SDS011;3293;51.690;5.982;2022-09-24T11:46:02;18.97;;;15.13;;
6519;SDS011;3293;51.690;5.982;2022-09-24T11:56:46;17.73;;;14.37;;
6519;SDS011;3293;51.690;5.982;2022-09-24T12:01:52;18.20;;;15.03;;
6519;SDS011;3293;51.690;5.982;2022-09-24T12:07:04;17.70;;;14.27;;
6519;SDS011;3293;51.690;5.982;2022-09-24T12:12:13;17.10;;;15.33;;
6519;SDS011;3293;51.690;5.982;2022-09-24T12:17:27;17.17;;;15.37;;
6519;SDS011;3293;51.690;5.982;2022-09-24T12:22:39;17.60;;;15.30;;
6519;SDS011;3293;51.690;5.982;2022-09-24T12:27:41;20.47;;;16.60;;
6519;SDS011;3293;51.690;5.982;2022-09-24T12:32:45;18.33;;;16.43;;
6519;SDS011;3293;51.690;5.982;2022-09-24T12:43:17;18.53;;;16.63;;
6519;SDS011;3293;51.690;5.982;2022-09-24T12:48:27;18.17;;;16.27;;
6519;SDS011;3293;51.690;5.982;2022-09-24T12:53:37;20.77;;;17.03;;
6519;SDS011;3293;51.690;5.982;2022-09-24T12:58:41;18.60;;;16.30;;
6519;SDS011;3293;51.690;5.982;2022-09-24T13:03:42;24.97;;;17.73;;
6519;SDS011;3293;51.690;5.982;2022-09-24T13:08:42;19.07;;;15.77;;
6519;SDS011;3293;51.690;5.982;2022-09-24T13:13:42;17.87;;;15.93;;
6519;SDS011;3293;51.690;5.982;2022-09-24T13:18:58;17.63;;;15.77;;
6519;SDS011;3293;51.690;5.982;2022-09-24T13:24:08;20.80;;;17.10;;
6519;SDS011;3293;51.690;5.982;2022-09-24T13:29:35;19.47;;;16.87;;
6519;SDS011;3293;51.690;5.982;2022-09-24T13:34:35;18.97;;;16.33;;
6519;SDS011;3293;51.690;5.982;2022-09-24T13:39:39;23.43;;;17.60;;
6519;SDS011;3293;51.690;5.982;2022-09-24T13:44:55;19.77;;;17.20;;
6519;SDS011;3293;51.690;5.982;2022-09-24T13:50:07;18.93;;;16.37;;
6519;SDS011;3293;51.690;5.982;2022-09-24T13:55:22;19.37;;;16.20;;
6519;SDS011;3293;51.690;5.982;2022-09-24T14:00:27;18.80;;;16.47;;
6519;SDS011;3293;51.690;5.982;2022-09-24T14:05:29;23.87;;;18.77;;
6519;SDS011;3293;51.690;5.982;2022-09-24T14:10:34;17.40;;;15.40;;
6519;SDS011;3293;51.690;5.982;2022-09-24T14:15:35;20.00;;;16.17;;
6519;SDS011;3293;51.690;5.982;2022-09-24T14:20:35;18.53;;;15.73;;
6519;SDS011;3293;51.690;5.982;2022-09-24T14:25:35;19.23;;;16.57;;
6519;SDS011;3293;51.690;5.982;2022-09-24T14:30:38;19.07;;;17.00;;
6519;SDS011;3293;51.690;5.982;2022-09-24T14:35:55;19.43;;;16.70;;
6519;SDS011;3293;51.690;5.982;2022-09-24T14:40:58;17.10;;;15.30;;
6519;SDS011;3293;51.690;5.982;2022-09-24T14:46:36;17.57;;;15.53;;
6519;SDS011;3293;51.690;5.982;2022-09-24T14:51:32;22.40;;;18.27;;
6519;SDS011;3293;51.690;5.982;2022-09-24T14:56:32;21.57;;;17.53;;
6519;SDS011;3293;51.690;5.982;2022-09-24T15:01:33;21.73;;;18.43;;
6519;SDS011;3293;51.690;5.982;2022-09-24T15:06:34;22.73;;;18.97;;
6519;SDS011;3293;51.690;5.982;2022-09-24T15:11:35;22.17;;;19.53;;
6519;SDS011;3293;51.690;5.982;2022-09-24T15:16:37;21.43;;;19.20;;
6519;SDS011;3293;51.690;5.982;2022-09-24T15:21:38;23.63;;;18.97;;
6519;SDS011;3293;51.690;5.982;2022-09-24T15:26:38;20.20;;;17.27;;
6519;SDS011;3293;51.690;5.982;2022-09-24T15:31:40;19.07;;;15.73;;
6519;SDS011;3293;51.690;5.982;2022-09-24T15:36:40;15.47;;;12.87;;
6519;SDS011;3293;51.690;5.982;2022-09-24T15:41:40;12.97;;;10.67;;
6519;SDS011;3293;51.690;5.982;2022-09-24T15:46:40;12.27;;;9.63;;
6519;SDS011;3293;51.690;5.982;2022-09-24T15:51:41;11.37;;;10.00;;
6519;SDS011;3293;51.690;5.982;2022-09-24T15:56:41;13.30;;;10.13;;
6519;SDS011;3293;51.690;5.982;2022-09-24T16:01:41;11.40;;;9.67;;
6519;SDS011;3293;51.690;5.982;2022-09-24T16:06:41;13.83;;;9.90;;
6519;SDS011;3293;51.690;5.982;2022-09-24T16:11:41;9.80;;;8.80;;
6519;SDS011;3293;51.690;5.982;2022-09-24T16:16:41;13.40;;;9.77;;
6519;SDS011;3293;51.690;5.982;2022-09-24T16:21:41;10.40;;;9.23;;
6519;SDS011;3293;51.690;5.982;2022-09-24T16:26:41;11.80;;;9.83;;
6519;SDS011;3293;51.690;5.982;2022-09-24T16:31:41;12.77;;;8.60;;
6519;SDS011;3293;51.690;5.982;2022-09-24T16:36:41;10.17;;;8.80;;
6519;SDS011;3293;51.690;5.982;2022-09-24T16:41:41;10.63;;;8.60;;
6519;SDS011;3293;51.690;5.982;2022-09-24T16:46:43;11.97;;;9.07;;
6519;SDS011;3293;51.690;5.982;2022-09-24T16:51:43;9.50;;;8.23;;
6519;SDS011;3293;51.690;5.982;2022-09-24T16:56:43;10.17;;;8.20;;
6519;SDS011;3293;51.690;5.982;2022-09-24T17:01:43;11.57;;;8.73;;
6519;SDS011;3293;51.690;5.982;2022-09-24T17:06:43;10.00;;;8.37;;
6519;SDS011;3293;51.690;5.982;2022-09-24T17:11:45;13.47;;;9.60;;
6519;SDS011;3293;51.690;5.982;2022-09-24T17:16:46;13.10;;;10.37;;
6519;SDS011;3293;51.690;5.982;2022-09-24T17:21:46;12.83;;;11.07;;
6519;SDS011;3293;51.690;5.982;2022-09-24T17:26:48;10.97;;;9.07;;
6519;SDS011;3293;51.690;5.982;2022-09-24T17:31:48;12.17;;;9.37;;
6519;SDS011;3293;51.690;5.982;2022-09-24T17:36:48;13.03;;;9.67;;
6519;SDS011;3293;51.690;5.982;2022-09-24T17:41:48;10.80;;;9.17;;
6519;SDS011;3293;51.690;5.982;2022-09-24T17:46:48;10.43;;;9.20;;
6519;SDS011;3293;51.690;5.982;2022-09-24T17:51:48;10.47;;;9.00;;
6519;SDS011;3293;51.690;5.982;2022-09-24T17:56:48;10.63;;;8.30;;
6519;SDS011;3293;51.690;5.982;2022-09-24T18:01:48;9.57;;;8.27;;
6519;SDS011;3293;51.690;5.982;2022-09-24T18:06:49;10.00;;;7.80;;
6519;SDS011;3293;51.690;5.982;2022-09-24T18:11:50;11.07;;;7.50;;
6519;SDS011;3293;51.690;5.982;2022-09-24T18:16:50;9.47;;;6.10;;
6519;SDS011;3293;51.690;5.982;2022-09-24T18:21:50;6.60;;;5.13;;
6519;SDS011;3293;51.690;5.982;2022-09-24T18:26:50;8.00;;;5.60;;
6519;SDS011;3293;51.690;5.982;2022-09-24T18:31:50;9.83;;;5.30;;
6519;SDS011;3293;51.690;5.982;2022-09-24T18:36:50;7.63;;;4.87;;
6519;SDS011;3293;51.690;5.982;2022-09-24T18:41:50;10.50;;;5.03;;
6519;SDS011;3293;51.690;5.982;2022-09-24T18:46:50;8.70;;;4.60;;
6519;SDS011;3293;51.690;5.982;2022-09-24T18:51:50;6.47;;;4.30;;
6519;SDS011;3293;51.690;5.982;2022-09-24T18:56:52;10.03;;;4.70;;
6519;SDS011;3293;51.690;5.982;2022-09-24T19:01:51;8.73;;;5.17;;
6519;SDS011;3293;51.690;5.982;2022-09-24T19:06:52;6.97;;;4.60;;
6519;SDS011;3293;51.690;5.982;2022-09-24T19:11:51;7.53;;;4.60;;
6519;SDS011;3293;51.690;5.982;2022-09-24T19:16:51;7.93;;;5.00;;
6519;SDS011;3293;51.690;5.982;2022-09-24T19:21:55;7.83;;;4.07;;
6519;SDS011;3293;51.690;5.982;2022-09-24T19:26:55;7.90;;;3.73;;
6519;SDS011;3293;51.690;5.982;2022-09-24T19:31:55;10.87;;;3.97;;
6519;SDS011;3293;51.690;5.982;2022-09-24T19:36:56;10.93;;;4.50;;
6519;SDS011;3293;51.690;5.982;2022-09-24T19:41:56;11.20;;;4.20;;
6519;SDS011;3293;51.690;5.982;2022-09-24T19:46:56;12.60;;;3.93;;
6519;SDS011;3293;51.690;5.982;2022-09-24T19:51:56;12.27;;;4.47;;
6519;SDS011;3293;51.690;5.982;2022-09-24T19:56:56;8.17;;;3.43;;
6519;SDS011;3293;51.690;5.982;2022-09-24T20:01:56;8.30;;;3.93;;
6519;SDS011;3293;51.690;5.982;2022-09-24T20:06:56;12.87;;;3.47;;
6519;SDS011;3293;51.690;5.982;2022-09-24T20:11:56;8.60;;;3.60;;
6519;SDS011;3293;51.690;5.982;2022-09-24T20:16:56;8.80;;;3.87;;
6519;SDS011;3293;51.690;5.982;2022-09-24T20:21:56;10.90;;;3.63;;
6519;SDS011;3293;51.690;5.982;2022-09-24T20:26:57;8.70;;;3.13;;
6519;SDS011;3293;51.690;5.982;2022-09-24T20:32:16;11.50;;;3.70;;
6519;SDS011;3293;51.690;5.982;2022-09-24T20:37:16;11.60;;;4.30;;
6519;SDS011;3293;51.690;5.982;2022-09-24T20:42:16;12.30;;;4.27;;
6519;SDS011;3293;51.690;5.982;2022-09-24T20:47:16;12.47;;;4.23;;
6519;SDS011;3293;51.690;5.982;2022-09-24T20:52:16;13.20;;;5.13;;
6519;SDS011;3293;51.690;5.982;2022-09-24T20:57:16;13.50;;;4.40;;
6519;SDS011;3293;51.690;5.982;2022-09-24T21:02:16;9.07;;;3.50;;
6519;SDS011;3293;51.690;5.982;2022-09-24T21:07:16;10.00;;;4.20;;
6519;SDS011;3293;51.690;5.982;2022-09-24T21:12:16;13.47;;;4.87;;
6519;SDS011;3293;51.690;5.982;2022-09-24T21:17:16;11.40;;;4.57;;
6519;SDS011;3293;51.690;5.982;2022-09-24T21:22:17;15.73;;;4.73;;
6519;SDS011;3293;51.690;5.982;2022-09-24T21:27:17;12.93;;;4.30;;
6519;SDS011;3293;51.690;5.982;2022-09-24T21:32:17;10.83;;;4.80;;
6519;SDS011;3293;51.690;5.982;2022-09-24T21:37:17;14.07;;;3.93;;
6519;SDS011;3293;51.690;5.982;2022-09-24T21:42:17;11.90;;;4.20;;
6519;SDS011;3293;51.690;5.982;2022-09-24T21:47:18;12.33;;;4.30;;
6519;SDS011;3293;51.690;5.982;2022-09-24T21:52:19;7.73;;;3.50;;
6519;SDS011;3293;51.690;5.982;2022-09-24T21:57:19;9.97;;;3.90;;
6519;SDS011;3293;51.690;5.982;2022-09-24T22:02:19;8.80;;;3.30;;
6519;SDS011;3293;51.690;5.982;2022-09-24T22:07:19;12.17;;;3.77;;
6519;SDS011;3293;51.690;5.982;2022-09-24T22:12:19;10.20;;;3.70;;
6519;SDS011;3293;51.690;5.982;2022-09-24T22:17:19;14.10;;;4.97;;
6519;SDS011;3293;51.690;5.982;2022-09-24T22:22:19;12.47;;;4.40;;
6519;SDS011;3293;51.690;5.982;2022-09-24T22:27:19;8.63;;;5.07;;
6519;SDS011;3293;51.690;5.982;2022-09-24T22:32:19;11.83;;;4.47;;
6519;SDS011;3293;51.690;5.982;2022-09-24T22:37:19;9.27;;;4.33;;
6519;SDS011;3293;51.690;5.982;2022-09-24T22:42:19;18.07;;;6.37;;
6519;SDS011;3293;51.690;5.982;2022-09-24T22:47:19;12.37;;;6.10;;
6519;SDS011;3293;51.690;5.982;2022-09-24T22:52:18;13.17;;;5.93;;
6519;SDS011;3293;51.690;5.982;2022-09-24T22:57:18;11.23;;;5.90;;
6519;SDS011;3293;51.690;5.982;2022-09-24T23:02:18;12.43;;;6.37;;
6519;SDS011;3293;51.690;5.982;2022-09-24T23:07:20;11.27;;;5.63;;
6519;SDS011;3293;51.690;5.982;2022-09-24T23:12:21;12.63;;;5.23;;
6519;SDS011;3293;51.690;5.982;2022-09-24T23:17:21;10.53;;;5.20;;
6519;SDS011;3293;51.690;5.982;2022-09-24T23:22:21;11.23;;;4.93;;
6519;SDS011;3293;51.690;5.982;2022-09-24T23:27:21;12.43;;;4.50;;
6519;SDS011;3293;51.690;5.982;2022-09-24T23:32:21;9.63;;;4.47;;
6519;SDS011;3293;51.690;5.982;2022-09-24T23:37:21;11.60;;;4.67;;
6519;SDS011;3293;51.690;5.982;2022-09-24T23:42:21;10.53;;;4.07;;
6519;SDS011;3293;51.690;5.982;2022-09-24T23:47:21;7.97;;;4.03;;
6519;SDS011;3293;51.690;5.982;2022-09-24T23:52:21;12.60;;;4.17;;
6519;SDS011;3293;51.690;5.982;2022-09-24T23:57:21;6.77;;;3.80;;
